WetterOnline ( http://www.wetteronline.at )

Wetter aktuell Kempten/Allgäu

Aktuelles Wetter: Kempten (705m)

6-stündlich | Neueste Meldungen
Ortszeit Temperatur Wetter
So, 18.02. 19:00 -1.0° C bewölkt
So, 18.02. 13:00 -0.6° C bewölkt
So, 18.02. 7:00 -2.0° C leichter Schneefall
So, 18.02. 1:00 -1.7° C leichter Schneefall
Sa, 17.02. 19:00 -0.3° C Schneefall
Sa, 17.02. 13:00 1.8° C leichter Regen
Sa, 17.02. 7:00 1.0° C leichter Regen
Sa, 17.02. 1:00 0.7° C Sprühregen
Ortszeit Temperatur Wetter
So, 18.02. 23:00 -1.6° C bewölkt
So, 18.02. 22:40 -1.6° C bewölkt
So, 18.02. 22:30 -1.6° C bedeckt
So, 18.02. 22:20 -1.6° C bedeckt
So, 18.02. 22:10 -1.6° C bedeckt
So, 18.02. 22:00 -1.4° C bedeckt
So, 18.02. 21:50 -1.4° C bedeckt
So, 18.02. 21:30 -1.3° C bedeckt
So, 18.02. 21:00 -1.2° C bedeckt
So, 18.02. 20:30 -1.1° C bedeckt
So, 18.02. 20:00 -1.1° C bedeckt
Ortszeit Relative Feuchte Sichtweite
So, 18.02. 19:00 86% 7 km
So, 18.02. 13:00 83% 6 km
So, 18.02. 7:00 94% 3.0 km
So, 18.02. 1:00 95% 1.3 km
Sa, 17.02. 19:00 96% 1.2 km
Sa, 17.02. 13:00 90% 6 km
Sa, 17.02. 7:00 95% 8 km
Sa, 17.02. 1:00 96% 6 km
Ortszeit Relative Feuchte Sichtweite
So, 18.02. 23:00 84% 9 km
So, 18.02. 22:40 85% -
So, 18.02. 22:30 85% 8 km
So, 18.02. 22:20 85% -
So, 18.02. 22:10 84% -
So, 18.02. 22:00 84% 9 km
So, 18.02. 21:50 84% -
So, 18.02. 21:30 84% 9 km
So, 18.02. 21:00 84% 8 km
So, 18.02. 20:30 84% 9 km
So, 18.02. 20:00 84% 9 km
Ortszeit Niederschlagsmenge Niederschlagsart
So, 18.02. 19:00 0.1 l/m2 in 12 Std. -
So, 18.02. 13:00 0.1 l/m2 in 6 Std. Schnee, Regen
So, 18.02. 7:00 4 l/m2 in 12 Std. Schnee
So, 18.02. 1:00 3 l/m2 in 6 Std. Schnee, Sprühregen
Sa, 17.02. 19:00 7 l/m2 in 12 Std. Schnee, Regen
Sa, 17.02. 13:00 0.7 l/m2 in 6 Std. Regen
Sa, 17.02. 7:00 0.1 l/m2 in 12 Std. Regen
Sa, 17.02. 1:00 0.1 l/m2 in 6 Std. Schnee, Regen
Ortszeit Niederschlagsmenge Niederschlagsart
So, 18.02. 23:00 0.0 l/m2 in 1 Std. -
So, 18.02. 22:40 keine Meldung -
So, 18.02. 22:30 0.0 l/m2 in 1 Std. -
So, 18.02. 22:20 keine Meldung -
So, 18.02. 22:10 keine Meldung -
So, 18.02. 22:00 0.0 l/m2 in 1 Std. -
So, 18.02. 21:50 keine Meldung -
So, 18.02. 21:30 0.0 l/m2 in 1 Std. -
So, 18.02. 21:00 0.0 l/m2 in 1 Std. -
So, 18.02. 20:30 0.0 l/m2 in 1 Std. -
So, 18.02. 20:00 0.0 l/m2 in 1 Std. -
Ortszeit Stärke Spitze Richtung
km/h Bft. km/h Grad Sektor
So, 18.02. 19:00 7 2 14 60° NO
So, 18.02. 13:00 7 2 14 30° NO
So, 18.02. 7:00 2 1 13 340° N
So, 18.02. 1:00 7 2 14 320° NW
Sa, 17.02. 19:00 9 2 19 310° NW
Sa, 17.02. 13:00 4 1 18 50° NO
Sa, 17.02. 7:00 7 2 14 80° O
Sa, 17.02. 1:00 0 0 14 - -
Ortszeit Stärke Spitze Richtung
km/h Bft. km/h Grad Sektor
So, 18.02. 23:00 7 2 14 80° O
So, 18.02. 22:40 7 2 - 70° O
So, 18.02. 22:30 9 2 15 90° O
So, 18.02. 22:20 9 2 - 90° O
So, 18.02. 22:10 9 2 - 90° O
So, 18.02. 22:00 11 2 22 100° O
So, 18.02. 21:50 11 2 - 100° O
So, 18.02. 21:30 11 2 18 90° O
So, 18.02. 21:00 7 2 18 80° O
So, 18.02. 20:30 9 2 17 90° O
So, 18.02. 20:00 11 2 20 90° O
Ortszeit Untergrenze Bedeckung Gattung
total tief tief mittel hoch
So, 18.02. 19:00 450 m 7/8 7/8 - - -
So, 18.02. 13:00 390 m 7/8 7/8 - - -
So, 18.02. 7:00 90 m 8/8 8/8 - - -
So, 18.02. 1:00 150 m 8/8 8/8 - - -
Sa, 17.02. 19:00 120 m 8/8 8/8 - - -
Sa, 17.02. 13:00 240 m 8/8 8/8 - - -
Sa, 17.02. 7:00 150 m 8/8 8/8 - - -
Sa, 17.02. 1:00 330 m 7/8 7/8 - - -
Ortszeit Bedeckungsgrad in Achtel und Wolkenuntergrenze
So, 18.02. 23:00 2(270m) 7(540m)
So, 18.02. 22:40 4(270m) 7(540m)
So, 18.02. 22:30 7(300m) 8(540m)
So, 18.02. 22:20 7(300m) 8(540m)
So, 18.02. 22:10 8(300m)
So, 18.02. 22:00 8(300m)
So, 18.02. 21:50 8(300m)
So, 18.02. 21:30 8(330m)
So, 18.02. 21:00 8(330m)
So, 18.02. 20:30 8(360m)
So, 18.02. 20:00 8(420m)
Ortszeit Luftdruck NN (hPa) Tendenz (hPa in 3 Std.)
So, 18.02. 19:00 1026 - 0,6
So, 18.02. 13:00 1027 - 0,3
So, 18.02. 7:00 1027 + 0,4
So, 18.02. 1:00 1025 + 2,2
Sa, 17.02. 19:00 1020 + 3,2
Sa, 17.02. 13:00 1017 - 0,9
Sa, 17.02. 7:00 1020 - 2,2
Sa, 17.02. 1:00 1026 - 1,0
Ortszeit Luftdruck NN (hPa) Tendenz (hPa in 3 Std.)
So, 18.02. 23:00 1024 - 1,4
So, 18.02. 22:40 1024 keine Meldung
So, 18.02. 22:30 1024 - 1,2
So, 18.02. 22:20 1024 keine Meldung
So, 18.02. 22:10 1025 keine Meldung
So, 18.02. 22:00 1025 - 1,0
So, 18.02. 21:50 1025 keine Meldung
So, 18.02. 21:30 1025 - 1,0
So, 18.02. 21:00 1025 - 0,8
So, 18.02. 20:30 1025 - 0,7
So, 18.02. 20:00 1026 - 0,5
Ortszeit Schneehöhe (cm)
So, 18.02. 19:00 2
So, 18.02. 13:00 3
So, 18.02. 7:00 5
So, 18.02. 1:00 4
Sa, 17.02. 19:00 1
Sa, 17.02. 13:00 -
Sa, 17.02. 7:00 -
Sa, 17.02. 1:00 -
Ortszeit Schneehöhe (cm)
So, 18.02. 23:00 2
So, 18.02. 22:40 2
So, 18.02. 22:30 2
So, 18.02. 22:20 2
So, 18.02. 22:10 2
So, 18.02. 22:00 2
So, 18.02. 21:50 2
So, 18.02. 21:30 2
So, 18.02. 21:00 2
So, 18.02. 20:30 2
So, 18.02. 20:00 2
Link zu dieser Seite / Seite empfehlen

Das Wetter in ...